weather.gov     
National Weather Service

Terminal Aerodrome Forecast
NWS Homepage
This page is being discontinued on March 12, 2014.
The same data is available at this site. Please update your bookmarks.
Thank you, and we apologize for the inconvenience.
Please send an email to SR-SRH.Webmaster@noaa.gov with any concerns.


Current Version
Previous Version:    01  02  03  04  05  06  07  08  09  10  11  12  13  14  15  16  17  18  19  20  21  22  23  24  25  26  27  28  29  30  
   31  32  33  34  35  36  37  38  39  40  41  42  43  44  45  46  47  48  
[Printable]
954
FTUS45 KABQ 170500
TAFROW
TAF
KROW 170526Z 1706/1806 36005KT 5SM BR BKN100
      TEMPO 1706/1709 2SM BR SCT007
     FM171000 24005KT 4SM BR SCT004 BKN015 OVC025
     FM171600 18005KT 6SM BR SCT004 SCT015 BKN025
     FM171800 15010KT P6SM SCT015 OVC040
     FM172000 24010KT P6SM VCSH SCT015 OVC040
     FM180400 36005KT P6SM VCFG SCT015 OVC040=


U.S. Dept. of Commerce
NOAA National Weather Service
1325 East West Highway
Silver Spring, MD 20910
E-mail: w-nws.webmaster@noaa.gov
Page last modified: May 16, 2007
NATIONAL WEATHER SERVICE: for Safety, for Work, for Fun - FOR LIFE